Arcadia, IN

5:15 PM EST on November 11, 2019 (GMT -0500)
Atlanta | | Change Station
Active Advisory: Winter Weather Advisory

Elev 863 ft 40.22 °N, 85.97 °W | Updated 46 seconds ago

Snow
Snow
28 °F
Feels Like 20 °F
N
8.5
Wind Variable Wind from North
Gusts 11.4 mph

Today
High -- | Low -- °F
--% Chance of Precip.
Yesterday
High -- | Low -- °F
Precip. -- in
Pressure 30.14 in
Visibility 0.5 miles
Clouds Overcast 600 ft
Windchill 20 °F
Dew Point 28 °F
Humidity 99%
Rainfall 0.10 in
Snow Depth Not available.
7:24 AM 5:30 PM
Full, 100% visible
METAR KTYQ 112155Z AUTO 34010KT 1/2SM SN OVC006 M02/M02 A3014 RMK AO2 T10251025
Pressure 30.14 in
Visibility 0.5 miles
Clouds Overcast 600 ft
Windchill 20 °F
Dew Point 28 °F
Humidity 99%
Rainfall 0.10 in
Snow Depth Not available.
7:24 AM 5:30 PM
Full, 100% visible
METAR KTYQ 112155Z AUTO 34010KT 1/2SM SN OVC006 M02/M02 A3014 RMK AO2 T10251025

Get Your Daily Forecast Email!

Thanks for signing up!

Be on the lookout for a verification email in your inbox.

You'll start receiving severe weather alerts in your inbox..

×

10-Day Weather Forecast

Almanac

Astronomy

Nov. 11, 2019 Rise Set
Actual Time
Civil Twilight
Nautical Twilight
Astronomical Twilight
Moon
Length of Visible Light
Length of Day
Tomorrow will be .
, % of the Moon is Illuminated

Today's Extremes

State Highs State Lows

Community

WunderPhotos

Category 6

Welcome to Category 6. This is the collective home for Weather Underground's featured writeups by Dr. Jeff Masters (right), Bob Henson (left), Chris Burt, and other regular contributors.

Nearby

Air Quality

  Air Quality AQ Index Pollutant
Not available.

Snow Depth

Station Depth Elevation

Earthquake Activity

City Distance Mag. Time & Date
Minimum magnitude displayed is 2.5.

Coastal Water Temperatures

Place Temperature

Stations

Nearby Weather Stations

Station Location Temp. Windchill Dew Point Humidity Wind Precip. Elev Updated Type
                   

Watches & Warnings

Winter Weather Advisory
Issued: 3:28 PM EST Nov. 11, 2019 – National Weather Service

... Winter Weather Advisory remains in effect until 8 am EST
Tuesday...

* what... snow. Additional snow accumulations of 1 to 3 inches.

* Where... portions of central, east central, north central and
west central Indiana.

* When... until 8 am EST Tuesday.

* Impacts... plan on slippery Road conditions. The hazardous
conditions could impact the evening commute.

* Additional details... rapidly falling temperatures this evening
and overnight may lead to flash freezing conditions with roads
remaining icy through Tuesday morning.

Precautionary/preparedness actions...

Slow down and use caution while traveling.

The latest Road conditions for Indiana can be obtained by
calling 1 800 2 6 1 7 6 2 3